Time;durP1;ratioP1;P1;durP2;ratioP2;P2;SDS_P1;SDS_P2;PMS_P1;PMS_P2;Temp;Humidity;BMP_temperature;BMP_pressure;BME280_temperature;BME280_humidity;BME280_pressure;Samples;Min_cycle;Max_cycle;Signal;HPM_P1;HPM_P2
2021/01/28 00:01:09;;;;;;;11.75;7.88;;;4.10;99.90;;;;;;5094098;28;20085;-69
2021/01/28 00:03:37;;;;;;;15.10;8.40;;;4.00;99.90;;;;;;5090305;28;20059;-69
2021/01/28 00:06:03;;;;;;;14.13;8.38;;;4.00;99.90;;;;;;5090388;28;20044;-70
2021/01/28 00:08:30;;;;;;;13.18;8.00;;;4.00;99.90;;;;;;5090341;28;20769;-70
2021/01/28 00:10:57;;;;;;;15.65;8.00;;;4.00;99.90;;;;;;5088856;28;20059;-69
2021/01/28 00:13:23;;;;;;;13.90;7.93;;;4.10;99.90;;;;;;5093532;28;20426;-69
2021/01/28 00:15:49;;;;;;;11.45;7.25;;;4.30;99.90;;;;;;5094605;28;20052;-71
2021/01/28 00:18:17;;;;;;;13.30;8.15;;;4.20;99.90;;;;;;5094095;28;20103;-70
2021/01/28 00:20:47;;;;;;;14.80;8.32;;;4.20;99.90;;;;;;5094986;28;20108;-70
2021/01/28 00:23:14;;;;;;;15.10;7.93;;;4.20;99.90;;;;;;5095589;28;20433;-70
2021/01/28 00:25:41;;;;;;;15.02;7.95;;;4.20;99.90;;;;;;5092773;28;20131;-70
2021/01/28 00:28:10;;;;;;;12.93;7.80;;;4.20;99.90;;;;;;5095120;28;20134;-70
2021/01/28 00:30:40;;;;;;;15.30;8.60;;;4.20;99.90;;;;;;5093429;28;20062;-70
2021/01/28 00:33:08;;;;;;;13.70;7.73;;;4.30;99.90;;;;;;5094790;27;20044;-70
2021/01/28 00:35:38;;;;;;;17.23;9.23;;;4.60;99.90;;;;;;5094516;28;20207;-70
2021/01/28 00:38:07;;;;;;;14.63;8.85;;;4.50;99.90;;;;;;5093828;28;20058;-70
2021/01/28 00:40:33;;;;;;;17.35;9.93;;;4.30;99.90;;;;;;5097880;27;20048;-70
2021/01/28 00:43:00;;;;;;;16.17;9.05;;;4.30;99.90;;;;;;5115194;28;20389;-70
2021/01/28 00:45:29;;;;;;;17.05;9.65;;;4.30;99.90;;;;;;5108873;28;20501;-70
2021/01/28 00:47:56;;;;;;;14.50;8.75;;;4.30;99.90;;;;;;5102177;28;20062;-70
2021/01/28 00:50:27;;;;;;;18.90;10.10;;;4.50;99.90;;;;;;5114805;28;20051;-71
2021/01/28 00:52:53;;;;;;;16.50;9.48;;;4.30;99.90;;;;;;5114702;28;20043;-71
2021/01/28 00:55:22;;;;;;;15.75;9.32;;;4.30;99.90;;;;;;5112602;28;20055;-71
2021/01/28 00:57:49;;;;;;;17.13;9.15;;;4.40;99.90;;;;;;5115374;28;20055;-71
2021/01/28 01:00:35;;;;;;;17.70;9.57;;;4.70;99.90;;;;;;5110488;28;20055;-71
2021/01/28 01:03:02;;;;;;;17.48;9.57;;;4.40;99.90;;;;;;5111937;28;20050;-69
2021/01/28 01:05:34;;;;;;;16.00;9.35;;;4.50;99.90;;;;;;5112627;28;20130;-70
2021/01/28 01:08:02;;;;;;;18.33;10.15;;;4.10;99.90;;;;;;5108887;27;20056;-70
2021/01/28 01:10:41;;;;;;;16.13;9.48;;;4.20;99.90;;;;;;5105316;28;20036;-70
2021/01/28 01:13:10;;;;;;;16.80;9.48;;;4.20;99.90;;;;;;5113831;28;20047;-71
2021/01/28 01:15:37;;;;;;;19.48;9.32;;;4.40;99.90;;;;;;5113404;28;20047;-70
2021/01/28 01:18:06;;;;;;;19.13;10.32;;;4.30;99.90;;;;;;5111347;28;20070;-70
2021/01/28 01:20:33;;;;;;;19.13;10.43;;;4.40;99.90;;;;;;5113750;28;20097;-70
2021/01/28 01:23:00;;;;;;;19.30;10.05;;;4.30;99.90;;;;;;5114534;28;20047;-71
2021/01/28 01:25:26;;;;;;;17.05;9.93;;;4.40;99.90;;;;;;5111933;28;20072;-70
2021/01/28 01:27:53;;;;;;;20.10;10.15;;;4.40;99.90;;;;;;5112290;28;20511;-70
2021/01/28 01:30:21;;;;;;;19.55;10.80;;;4.40;99.90;;;;;;5110481;28;20044;-71
2021/01/28 01:32:48;;;;;;;18.30;10.45;;;4.40;99.90;;;;;;5109594;28;20093;-71
2021/01/28 01:35:18;;;;;;;21.45;10.52;;;4.60;99.90;;;;;;5110803;28;20433;-70
2021/01/28 01:37:46;;;;;;;18.45;9.60;;;4.30;99.90;;;;;;5111626;28;20045;-70
2021/01/28 01:40:18;;;;;;;19.92;10.88;;;4.30;99.90;;;;;;5106055;28;20046;-70
2021/01/28 01:42:49;;;;;;;20.42;10.13;;;4.50;99.90;;;;;;5110257;28;20048;-71
2021/01/28 01:45:28;;;;;;;18.65;10.32;;;4.60;99.90;;;;;;5112067;27;20065;-71
2021/01/28 01:48:02;;;;;;;18.30;10.48;;;4.60;99.90;;;;;;5113203;28;20524;-70
2021/01/28 01:51:01;;;;;;;19.90;10.55;;;4.40;99.90;;;;;;5112444;28;20071;-70
2021/01/28 01:53:53;;;;;;;19.17;10.35;;;4.30;99.90;;;;;;5112681;28;20050;-70
2021/01/28 01:56:54;;;;;;;21.67;10.43;;;4.40;99.90;;;;;;5113913;28;20056;-70
2021/01/28 01:59:26;;;;;;;20.02;9.90;;;4.40;99.90;;;;;;5088978;28;20048;-70
2021/01/28 02:02:04;;;;;;;19.88;10.73;;;4.40;99.90;;;;;;5111327;28;20047;-70
2021/01/28 02:04:32;;;;;;;23.30;10.80;;;4.50;99.90;;;;;;5103669;28;20344;-69
2021/01/28 02:07:04;;;;;;;19.45;10.15;;;4.60;99.90;;;;;;5113490;28;20088;-69
2021/01/28 02:09:31;;;;;;;20.05;10.85;;;4.50;99.90;;;;;;5106376;28;20048;-69
2021/01/28 02:11:57;;;;;;;21.15;10.50;;;4.70;99.90;;;;;;5104267;28;20086;-69
2021/01/28 02:14:25;;;;;;;20.02;10.27;;;4.60;99.90;;;;;;5114207;28;20051;-70
2021/01/28 02:16:56;;;;;;;20.23;11.13;;;4.60;99.90;;;;;;5110469;28;20108;-69
2021/01/28 02:19:41;;;;;;;22.73;10.68;;;4.60;99.90;;;;;;5111369;28;20051;-70
2021/01/28 02:22:08;;;;;;;21.98;10.10;;;4.70;99.90;;;;;;5102607;28;20122;-70
2021/01/28 02:24:52;;;;;;;20.98;10.77;;;4.60;99.90;;;;;;5100784;27;20131;-70
2021/01/28 02:27:19;;;;;;;20.13;10.40;;;4.80;99.90;;;;;;5109310;28;20048;-70
2021/01/28 02:29:46;;;;;;;19.27;10.07;;;4.70;99.90;;;;;;5112672;28;20441;-69
2021/01/28 02:32:13;;;;;;;22.08;10.98;;;4.70;99.90;;;;;;5110909;28;20075;-70
2021/01/28 02:34:43;;;;;;;20.70;10.68;;;4.70;99.90;;;;;;5110220;28;20104;-70
2021/01/28 02:37:18;;;;;;;25.55;11.02;;;4.70;99.90;;;;;;5109978;28;20056;-69
2021/01/28 02:39:44;;;;;;;20.45;11.00;;;4.70;99.90;;;;;;5109139;28;20082;-69
2021/01/28 02:42:30;;;;;;;22.08;10.88;;;4.60;99.90;;;;;;5111876;28;20486;-69
2021/01/28 02:44:57;;;;;;;22.25;10.73;;;4.70;99.90;;;;;;5109852;28;20493;-70
2021/01/28 02:47:23;;;;;;;21.17;11.98;;;4.90;99.90;;;;;;5107734;28;20513;-69
2021/01/28 02:49:50;;;;;;;22.02;10.25;;;4.70;99.90;;;;;;5111354;28;20071;-71
2021/01/28 02:52:18;;;;;;;21.25;11.07;;;4.60;99.90;;;;;;5110097;28;20101;-70
2021/01/28 02:54:47;;;;;;;23.25;11.05;;;4.60;99.90;;;;;;5105771;28;20126;-70
2021/01/28 02:57:14;;;;;;;20.63;10.77;;;4.60;99.90;;;;;;5113020;28;20492;-70
2021/01/28 02:59:41;;;;;;;19.27;10.38;;;4.60;99.90;;;;;;5110495;28;20079;-70
2021/01/28 03:02:19;;;;;;;23.17;11.68;;;4.70;99.90;;;;;;5108621;27;20044;-70
2021/01/28 03:04:46;;;;;;;20.85;10.55;;;4.70;99.90;;;;;;5111914;28;20417;-70
2021/01/28 03:07:14;;;;;;;22.17;11.55;;;4.70;99.90;;;;;;5110951;28;20459;-71
2021/01/28 03:09:41;;;;;;;20.77;10.65;;;4.80;99.90;;;;;;5110733;28;20097;-70
2021/01/28 03:12:08;;;;;;;22.45;10.57;;;4.70;99.90;;;;;;5112150;28;20047;-70
2021/01/28 03:14:35;;;;;;;22.13;11.63;;;4.80;99.90;;;;;;5108592;28;20522;-70
2021/01/28 03:17:04;;;;;;;19.50;10.18;;;4.70;99.90;;;;;;5102918;27;20050;-70
2021/01/28 03:19:31;;;;;;;21.08;11.55;;;4.70;99.90;;;;;;5112524;28;20142;-70
2021/01/28 03:21:58;;;;;;;21.35;10.73;;;4.70;99.90;;;;;;5110620;28;20462;-71
2021/01/28 03:24:24;;;;;;;21.17;10.48;;;4.80;99.90;;;;;;5109007;28;20175;-70
2021/01/28 03:26:51;;;;;;;20.55;10.07;;;4.80;99.90;;;;;;5102072;28;20420;-70
2021/01/28 03:29:18;;;;;;;18.92;10.45;;;4.70;99.90;;;;;;5110343;28;20081;-70
2021/01/28 03:31:45;;;;;;;18.73;9.20;;;4.80;99.90;;;;;;5105274;28;20521;-70
2021/01/28 03:34:12;;;;;;;19.92;10.20;;;4.70;99.90;;;;;;5109967;28;20559;-71
2021/01/28 03:36:39;;;;;;;17.73;9.90;;;4.90;99.90;;;;;;5110957;28;20083;-70
2021/01/28 03:39:06;;;;;;;19.25;10.38;;;4.90;99.90;;;;;;5110110;28;20043;-70
2021/01/28 03:41:34;;;;;;;17.83;9.93;;;5.10;99.90;;;;;;5108924;28;20105;-70
2021/01/28 03:44:00;;;;;;;19.27;10.32;;;4.90;99.90;;;;;;5110418;28;20044;-71
2021/01/28 03:46:27;;;;;;;18.77;9.85;;;4.90;99.90;;;;;;5109025;28;20082;-71
2021/01/28 03:48:54;;;;;;;19.95;9.27;;;4.80;99.90;;;;;;5112019;28;20044;-71
2021/01/28 03:51:20;;;;;;;20.38;9.70;;;4.90;99.90;;;;;;5106961;28;20175;-71
2021/01/28 03:53:47;;;;;;;15.25;8.85;;;4.80;99.90;;;;;;5101975;28;20425;-71
2021/01/28 03:56:14;;;;;;;17.77;8.82;;;4.80;99.90;;;;;;5111522;28;20120;-70
2021/01/28 03:58:41;;;;;;;16.48;9.45;;;4.90;99.90;;;;;;5108931;28;20059;-70
2021/01/28 04:01:09;;;;;;;15.95;8.13;;;4.90;99.90;;;;;;5103119;28;20122;-70
2021/01/28 04:03:36;;;;;;;16.98;9.02;;;5.10;99.90;;;;;;5111414;28;20440;-71
2021/01/28 04:06:03;;;;;;;16.85;8.77;;;4.90;99.90;;;;;;5110458;28;20077;-71
2021/01/28 04:08:30;;;;;;;14.57;7.63;;;4.90;99.90;;;;;;5107877;28;20054;-70
2021/01/28 04:10:56;;;;;;;16.30;8.95;;;4.90;99.90;;;;;;5102494;28;20051;-70
2021/01/28 04:13:22;;;;;;;15.57;8.85;;;4.90;99.90;;;;;;5111599;28;20474;-68
2021/01/28 04:15:49;;;;;;;13.15;6.80;;;4.90;99.90;;;;;;5110377;28;20478;-71
2021/01/28 04:18:19;;;;;;;17.50;9.63;;;4.90;99.90;;;;;;5110727;28;20048;-70
2021/01/28 04:20:45;;;;;;;;;;;4.90;99.90;;;;;;5112133;28;20055;-70
2021/01/28 04:23:12;;;;;;;14.73;8.57;;;5.10;99.90;;;;;;5107886;28;20011;-71
2021/01/28 04:25:39;;;;;;;16.15;9.70;;;4.90;99.90;;;;;;5111465;28;20074;-70
2021/01/28 04:28:05;;;;;;;16.70;9.02;;;5.00;99.90;;;;;;5108017;28;20082;-70
2021/01/28 04:30:33;;;;;;;17.80;10.63;;;5.10;99.90;;;;;;5108310;28;20079;-70
2021/01/28 04:33:01;;;;;;;13.68;8.30;;;5.00;99.90;;;;;;5108606;28;20112;-70
2021/01/28 04:35:28;;;;;;;17.95;9.65;;;5.00;99.90;;;;;;5112175;28;20096;-69
2021/01/28 04:37:54;;;;;;;18.80;9.25;;;5.10;99.90;;;;;;5108308;28;20055;-69
2021/01/28 04:40:44;;;;;;;17.50;9.35;;;5.00;99.90;;;;;;5108655;28;20051;-70
2021/01/28 04:43:27;;;;;;;15.93;8.90;;;5.00;99.90;;;;;;5110951;28;20048;-70
2021/01/28 04:45:56;;;;;;;13.63;8.82;;;4.90;99.90;;;;;;5100428;28;20044;-69
2021/01/28 04:48:28;;;;;;;16.70;9.18;;;4.80;99.90;;;;;;5100755;28;20079;-70
2021/01/28 04:50:59;;;;;;;13.25;7.55;;;4.90;99.90;;;;;;5109868;28;20048;-69
2021/01/28 04:53:48;;;;;;;16.40;8.88;;;5.00;99.90;;;;;;5111118;28;20097;-70
2021/01/28 04:56:21;;;;;;;16.60;9.43;;;5.00;99.90;;;;;;5108363;28;20056;-69
2021/01/28 04:58:50;;;;;;;8.88;4.45;;;4.90;99.90;;;;;;5106968;28;20048;-69
2021/01/28 05:01:16;;;;;;;15.63;8.73;;;4.80;99.90;;;;;;5105112;28;20056;-70
2021/01/28 05:03:47;;;;;;;17.17;9.05;;;4.90;99.90;;;;;;5109994;28;20047;-69
2021/01/28 05:06:14;;;;;;;16.48;9.13;;;5.00;99.90;;;;;;5112678;28;20090;-70
2021/01/28 05:08:43;;;;;;;16.70;9.65;;;5.00;99.90;;;;;;5108786;28;20467;-70
2021/01/28 05:11:31;;;;;;;15.48;9.25;;;5.10;99.90;;;;;;5112948;28;20091;-70
2021/01/28 05:14:30;;;;;;;22.13;9.90;;;5.10;99.90;;;;;;5112352;28;20135;-70
2021/01/28 05:17:00;;;;;;;21.13;10.25;;;5.20;99.90;;;;;;5109640;28;20047;-69
2021/01/28 05:19:29;;;;;;;18.30;9.40;;;4.90;99.90;;;;;;5114571;28;20052;-70
2021/01/28 05:22:26;;;;;;;17.67;10.02;;;5.00;99.90;;;;;;5111239;28;20051;-70
2021/01/28 05:25:00;;;;;;;16.52;9.15;;;5.20;99.90;;;;;;5112595;28;20503;-70
2021/01/28 05:27:32;;;;;;;17.00;9.60;;;5.00;99.90;;;;;;5114111;28;20044;-70
2021/01/28 05:30:03;;;;;;;18.67;10.18;;;4.80;99.90;;;;;;5109833;28;20193;-70
2021/01/28 05:32:42;;;;;;;20.38;10.20;;;5.00;99.90;;;;;;5107251;28;20090;-70
2021/01/28 05:35:31;;;;;;;19.83;10.50;;;4.80;99.90;;;;;;5111370;28;20132;-69
2021/01/28 05:38:25;;;;;;;20.25;10.80;;;5.00;99.90;;;;;;5113103;28;20816;-69
2021/01/28 05:40:54;;;;;;;20.90;10.60;;;5.00;99.90;;;;;;5113387;28;20046;-69
2021/01/28 05:43:42;;;;;;;19.00;11.30;;;4.90;99.90;;;;;;5112302;28;20814;-70
2021/01/28 05:46:17;;;;;;;20.75;11.18;;;5.20;99.90;;;;;;5111225;28;20457;-70
2021/01/28 05:48:58;;;;;;;17.73;9.02;;;4.90;99.90;;;;;;5111991;28;20054;-70
2021/01/28 05:51:42;;;;;;;20.27;11.52;;;5.10;99.90;;;;;;5109480;28;20051;-70
2021/01/28 05:54:23;;;;;;;28.48;13.30;;;4.80;99.90;;;;;;5112574;28;20070;-70
2021/01/28 05:56:55;;;;;;;22.63;12.32;;;5.00;99.90;;;;;;5111875;28;20086;-70
2021/01/28 05:59:50;;;;;;;24.13;12.75;;;5.10;99.90;;;;;;5102200;28;20135;-70
2021/01/28 06:02:45;;;;;;;23.02;12.00;;;4.90;99.90;;;;;;5109123;28;20090;-70
2021/01/28 06:05:26;;;;;;;22.40;11.55;;;5.10;99.90;;;;;;5111344;28;20056;-69
2021/01/28 06:08:15;;;;;;;22.52;11.68;;;5.00;99.90;;;;;;5112500;27;20094;-70
2021/01/28 06:11:19;;;;;;;24.70;12.88;;;4.90;99.90;;;;;;5106114;28;20043;-69
2021/01/28 06:13:52;;;;;;;26.98;12.10;;;5.00;99.90;;;;;;5102019;28;20051;-69
2021/01/28 06:16:24;;;;;;;26.35;12.85;;;4.90;99.90;;;;;;5109958;27;20051;-70
2021/01/28 06:18:59;;;;;;;26.38;12.93;;;5.00;99.90;;;;;;5111705;28;20058;-70
2021/01/28 06:21:29;;;;;;;22.98;11.57;;;5.00;99.90;;;;;;5112086;28;20050;-69
2021/01/28 06:24:17;;;;;;;21.58;11.88;;;4.90;99.90;;;;;;5107622;28;20449;-70
2021/01/28 06:27:08;;;;;;;21.20;11.73;;;5.00;99.90;;;;;;5110144;28;20048;-69
2021/01/28 06:29:46;;;;;;;23.15;11.80;;;5.00;99.90;;;;;;5108846;28;20615;-69
2021/01/28 06:32:13;;;;;;;21.20;11.40;;;5.20;99.90;;;;;;5107421;28;20097;-69
2021/01/28 06:34:51;;;;;;;23.23;11.98;;;4.90;99.90;;;;;;5109551;28;20054;-70
2021/01/28 06:37:29;;;;;;;25.88;12.63;;;5.20;99.90;;;;;;5111782;28;20052;-70
2021/01/28 06:39:57;;;;;;;23.75;11.70;;;5.00;99.90;;;;;;5102495;28;20510;-70
2021/01/28 06:42:36;;;;;;;21.27;11.53;;;5.10;99.90;;;;;;5112257;28;20058;-70
2021/01/28 06:45:14;;;;;;;21.30;11.43;;;5.00;99.90;;;;;;5110550;28;20336;-70
2021/01/28 06:48:03;;;;;;;23.42;11.55;;;5.00;99.90;;;;;;5107523;28;20094;-69
2021/01/28 06:51:15;;;;;;;22.05;11.98;;;5.10;99.90;;;;;;5112987;28;20069;-69
2021/01/28 06:53:44;;;;;;;;;;;5.10;99.90;;;;;;5097339;28;20040;-70
2021/01/28 06:56:38;;;;;;;20.93;10.50;;;5.20;99.90;;;;;;5111397;28;19920;-70
2021/01/28 06:59:36;;;;;;;21.65;10.55;;;5.10;99.90;;;;;;5108313;28;20096;-69
2021/01/28 07:02:22;;;;;;;17.30;10.55;;;5.10;99.90;;;;;;5085990;28;20069;-69
2021/01/28 07:05:13;;;;;;;22.25;11.27;;;5.10;99.90;;;;;;5112877;28;20071;-69
2021/01/28 07:07:52;;;;;;;20.70;10.30;;;5.10;99.90;;;;;;5108544;28;20100;-70
2021/01/28 07:10:35;;;;;;;17.55;8.23;;;5.10;99.90;;;;;;5108336;28;20104;-70
2021/01/28 07:13:03;;;;;;;16.67;9.32;;;5.20;99.90;;;;;;5111430;28;20482;-70
2021/01/28 07:15:30;;;;;;;18.50;10.43;;;5.30;99.90;;;;;;5108844;28;20139;-70
2021/01/28 07:18:04;;;;;;;16.00;9.57;;;5.20;99.90;;;;;;5104778;28;20044;-70
2021/01/28 07:20:40;;;;;;;17.98;9.82;;;5.00;99.90;;;;;;5098344;28;20407;-71
2021/01/28 07:23:27;;;;;;;16.88;9.85;;;5.10;99.90;;;;;;5106071;28;20071;-71
2021/01/28 07:26:06;;;;;;;17.35;10.30;;;5.30;99.90;;;;;;5110383;28;20124;-70
2021/01/28 07:28:34;;;;;;;14.65;8.40;;;5.10;99.90;;;;;;5103732;28;20427;-70
2021/01/28 07:31:06;;;;;;;15.93;8.77;;;5.10;99.90;;;;;;5106939;28;20047;-69
2021/01/28 07:33:47;;;;;;;17.67;9.25;;;5.10;99.90;;;;;;5110823;28;20233;-70
2021/01/28 07:36:22;;;;;;;16.58;9.57;;;5.00;99.90;;;;;;5109130;28;20047;-70
2021/01/28 07:38:53;;;;;;;16.38;9.13;;;5.10;99.90;;;;;;5107088;28;20052;-70
2021/01/28 07:41:23;;;;;;;18.98;10.10;;;5.00;99.90;;;;;;5111330;28;20055;-70
2021/01/28 07:43:53;;;;;;;18.55;9.18;;;5.20;99.90;;;;;;5111219;28;20367;-70
2021/01/28 07:46:28;;;;;;;17.13;9.73;;;5.10;99.90;;;;;;5099446;28;20031;-69
2021/01/28 07:49:10;;;;;;;17.33;8.85;;;5.20;99.90;;;;;;5100416;28;20340;-69
2021/01/28 07:51:39;;;;;;;14.82;8.23;;;5.20;99.90;;;;;;5110162;28;20478;-71
2021/01/28 07:54:25;;;;;;;14.40;8.15;;;5.20;99.90;;;;;;5107792;28;20078;-71
2021/01/28 07:57:04;;;;;;;15.48;8.90;;;5.50;99.90;;;;;;5109976;28;20101;-71
2021/01/28 07:59:52;;;;;;;18.42;8.43;;;5.30;99.90;;;;;;5109440;28;20052;-70
2021/01/28 08:02:18;;;;;;;14.23;7.43;;;5.30;99.90;;;;;;5110121;28;20112;-70
2021/01/28 08:04:48;;;;;;;15.32;7.75;;;5.20;99.90;;;;;;5108739;28;20036;-71
2021/01/28 08:07:22;;;;;;;14.15;7.93;;;5.40;99.90;;;;;;5109744;28;20048;-70
2021/01/28 08:09:54;;;;;;;13.70;7.63;;;5.30;99.90;;;;;;5106402;28;20043;-70
2021/01/28 08:12:37;;;;;;;12.27;7.57;;;5.30;99.90;;;;;;5104824;28;20082;-70
2021/01/28 08:15:14;;;;;;;10.75;6.65;;;5.40;99.90;;;;;;5107952;28;20078;-70
2021/01/28 08:17:41;;;;;;;10.82;6.88;;;5.30;99.90;;;;;;5109363;28;20439;-70
2021/01/28 08:20:30;;;;;;;12.38;6.28;;;5.40;99.90;;;;;;5108026;28;20406;-70
2021/01/28 08:23:04;;;;;;;10.68;6.70;;;5.50;99.90;;;;;;5110473;28;20043;-70
2021/01/28 08:25:37;;;;;;;13.05;6.63;;;5.30;99.90;;;;;;5109087;28;20121;-70
2021/01/28 08:28:10;;;;;;;11.45;6.68;;;5.30;99.90;;;;;;5108215;28;20067;-70
2021/01/28 08:30:37;;;;;;;10.73;6.00;;;5.50;99.90;;;;;;5104388;28;20048;-69
2021/01/28 08:33:04;;;;;;;11.50;6.22;;;5.40;99.90;;;;;;5106966;28;20353;-69
2021/01/28 08:35:43;;;;;;;10.52;6.30;;;5.40;99.90;;;;;;5115606;28;20078;-69
2021/01/28 08:38:12;;;;;;;12.07;6.30;;;5.40;99.90;;;;;;5110091;28;20458;-70
2021/01/28 08:40:39;;;;;;;13.30;6.70;;;5.40;99.90;;;;;;5113118;28;20462;-70
2021/01/28 08:43:18;;;;;;;13.40;7.00;;;5.40;99.90;;;;;;5113264;28;20096;-70
2021/01/28 08:45:44;;;;;;;11.55;6.53;;;5.50;99.90;;;;;;5105612;28;20044;-71
2021/01/28 08:48:15;;;;;;;10.50;6.03;;;5.50;99.90;;;;;;5110322;28;20459;-70
2021/01/28 08:50:42;;;;;;;9.10;5.15;;;5.40;99.90;;;;;;5107664;28;20487;-71
2021/01/28 08:53:17;;;;;;;8.90;5.38;;;5.50;99.90;;;;;;5110687;28;20055;-71
2021/01/28 08:55:44;;;;;;;9.07;5.55;;;5.50;99.90;;;;;;5109018;28;20096;-71
2021/01/28 08:58:23;;;;;;;12.20;5.93;;;5.50;99.90;;;;;;5097183;28;20370;-71
2021/01/28 09:00:55;;;;;;;9.40;5.50;;;5.30;99.90;;;;;;5110432;28;20523;-71
2021/01/28 09:03:27;;;;;;;8.98;5.80;;;5.50;99.90;;;;;;5110041;28;20410;-69
2021/01/28 09:05:59;;;;;;;9.10;5.30;;;5.50;99.90;;;;;;5110182;28;20040;-69
2021/01/28 09:08:29;;;;;;;10.70;5.95;;;5.50;99.90;;;;;;5113388;28;20125;-70
2021/01/28 09:11:25;;;;;;;9.10;5.00;;;5.50;99.90;;;;;;5111325;28;20047;-70
2021/01/28 09:14:22;;;;;;;8.60;4.80;;;5.60;99.90;;;;;;5109355;28;20055;-70
2021/01/28 09:17:02;;;;;;;7.80;4.78;;;5.60;99.90;;;;;;5099867;28;20056;-70
2021/01/28 09:19:33;;;;;;;7.50;4.43;;;5.50;99.90;;;;;;5113294;28;20051;-70
2021/01/28 09:22:05;;;;;;;10.95;5.22;;;5.60;99.90;;;;;;5113072;28;20108;-71
2021/01/28 09:24:52;;;;;;;8.65;4.70;;;5.60;99.90;;;;;;5108320;28;20131;-71
2021/01/28 09:27:21;;;;;;;8.48;5.20;;;5.60;99.90;;;;;;5102551;28;20055;-71
2021/01/28 09:29:50;;;;;;;7.35;4.50;;;5.60;99.90;;;;;;5112895;28;20131;-71
2021/01/28 09:32:23;;;;;;;10.07;5.43;;;5.60;99.90;;;;;;5108514;28;20043;-71
2021/01/28 09:35:15;;;;;;;8.93;4.45;;;5.70;99.90;;;;;;5111106;28;20154;-70
2021/01/28 09:37:45;;;;;;;8.60;4.63;;;5.70;99.90;;;;;;5111887;28;20098;-71
2021/01/28 09:40:20;;;;;;;8.43;4.28;;;5.60;99.90;;;;;;5112886;28;20059;-71
2021/01/28 09:42:48;;;;;;;6.38;4.38;;;5.70;99.90;;;;;;5110800;28;20121;-70
2021/01/28 09:45:24;;;;;;;8.88;4.65;;;5.60;99.90;;;;;;5110628;28;20036;-70
2021/01/28 09:47:53;;;;;;;8.77;5.20;;;5.60;99.90;;;;;;5109472;28;20502;-70
2021/01/28 09:50:20;;;;;;;8.18;4.43;;;5.60;99.90;;;;;;5106736;28;20485;-71
2021/01/28 09:52:49;;;;;;;8.35;4.57;;;5.70;99.90;;;;;;5110530;28;20458;-70
2021/01/28 09:55:19;;;;;;;8.52;4.82;;;5.60;99.90;;;;;;5100476;28;20143;-70
2021/01/28 09:57:45;;;;;;;7.60;3.92;;;5.70;99.90;;;;;;5108974;28;20047;-69
2021/01/28 10:00:20;;;;;;;7.43;4.45;;;5.60;99.90;;;;;;5111809;28;20073;-70
2021/01/28 10:02:51;;;;;;;7.95;4.85;;;5.70;99.90;;;;;;5112372;28;20411;-70
2021/01/28 10:05:20;;;;;;;7.93;5.15;;;5.80;99.90;;;;;;5102345;28;20051;-71
2021/01/28 10:07:49;;;;;;;8.32;5.15;;;5.70;99.90;;;;;;5103518;28;20040;-69
2021/01/28 10:10:18;;;;;;;7.50;4.95;;;5.70;99.90;;;;;;5105745;28;20455;-69
2021/01/28 10:12:46;;;;;;;8.88;5.65;;;5.80;99.90;;;;;;5096290;28;20396;-70
2021/01/28 10:15:13;;;;;;;9.70;5.53;;;5.90;99.90;;;;;;5095559;28;20076;-70
2021/01/28 10:17:41;;;;;;;9.23;5.47;;;6.00;99.90;;;;;;5098776;28;20044;-69
2021/01/28 10:20:09;;;;;;;9.57;5.80;;;5.90;99.90;;;;;;5100634;28;20060;-69
2021/01/28 10:22:38;;;;;;;10.00;5.93;;;5.90;99.90;;;;;;5097327;28;20060;-69
2021/01/28 10:25:07;;;;;;;10.43;5.68;;;6.00;99.90;;;;;;5099034;28;20043;-69
2021/01/28 10:27:36;;;;;;;10.30;5.53;;;6.00;99.90;;;;;;5098928;28;20132;-68
2021/01/28 10:30:04;;;;;;;12.35;6.30;;;6.10;99.90;;;;;;5098942;28;20083;-69
2021/01/28 10:32:31;;;;;;;10.68;6.03;;;6.20;99.90;;;;;;5099305;28;20108;-69
2021/01/28 10:34:58;;;;;;;9.18;6.00;;;6.30;99.90;;;;;;5098274;28;20163;-69
2021/01/28 10:37:25;;;;;;;9.55;6.05;;;6.20;99.90;;;;;;5099718;28;20437;-69
2021/01/28 10:39:51;;;;;;;9.60;5.43;;;6.20;99.90;;;;;;5097183;28;20059;-69
2021/01/28 10:42:20;;;;;;;11.10;6.13;;;6.30;99.90;;;;;;5098141;28;20528;-69
2021/01/28 10:44:47;;;;;;;8.95;5.50;;;6.40;99.90;;;;;;5097901;28;20150;-68
2021/01/28 10:47:15;;;;;;;10.13;5.65;;;6.30;99.90;;;;;;5097619;28;20079;-69
2021/01/28 10:49:42;;;;;;;10.32;5.35;;;6.30;99.90;;;;;;5099206;28;20078;-69
2021/01/28 10:52:09;;;;;;;7.45;4.90;;;6.20;99.90;;;;;;5099005;27;20081;-68
2021/01/28 10:54:36;;;;;;;9.18;5.53;;;6.40;99.90;;;;;;5098294;27;20048;-68
2021/01/28 10:57:03;;;;;;;7.57;4.82;;;6.50;99.90;;;;;;5098696;28;20162;-67
2021/01/28 10:59:30;;;;;;;7.38;4.45;;;6.50;99.90;;;;;;5098166;28;20124;-70
2021/01/28 11:01:56;;;;;;;7.03;4.32;;;6.50;99.90;;;;;;5097651;28;20078;-70
2021/01/28 11:04:24;;;;;;;6.78;3.42;;;6.60;99.90;;;;;;5099832;28;20055;-69
2021/01/28 11:06:50;;;;;;;6.15;3.50;;;6.70;99.90;;;;;;5099002;28;20048;-71
2021/01/28 11:09:16;;;;;;;3.78;2.53;;;6.70;99.90;;;;;;5097729;28;20078;-70
2021/01/28 11:11:43;;;;;;;6.45;3.33;;;6.80;99.90;;;;;;5089099;27;20182;-72
2021/01/28 11:14:10;;;;;;;6.05;3.15;;;6.70;99.90;;;;;;5088117;28;20427;-70
2021/01/28 11:16:38;;;;;;;4.95;3.03;;;7.10;99.90;;;;;;5089451;28;20129;-72
2021/01/28 11:19:07;;;;;;;4.50;3.20;;;6.80;99.90;;;;;;5089951;28;20080;-68
2021/01/28 11:21:34;;;;;;;4.90;3.00;;;6.90;99.90;;;;;;5092255;28;20052;-69
2021/01/28 11:24:00;;;;;;;4.28;2.80;;;6.90;99.90;;;;;;5089758;28;20109;-68
2021/01/28 11:26:27;;;;;;;4.47;2.88;;;7.00;99.90;;;;;;5090056;28;20052;-69
2021/01/28 11:28:54;;;;;;;4.45;2.60;;;7.00;99.90;;;;;;5091339;28;20095;-69
2021/01/28 11:31:20;;;;;;;4.88;3.08;;;7.10;99.90;;;;;;5092316;28;20083;-68
2021/01/28 11:33:46;;;;;;;4.93;2.42;;;7.10;99.90;;;;;;5089117;28;20073;-68
2021/01/28 11:36:13;;;;;;;3.50;2.70;;;7.10;99.90;;;;;;5091003;28;20059;-67
2021/01/28 11:38:39;;;;;;;6.22;3.13;;;7.10;99.90;;;;;;5089881;28;20556;-72
2021/01/28 11:41:05;;;;;;;5.03;2.83;;;7.20;99.90;;;;;;5089622;28;20164;-70
2021/01/28 11:43:32;;;;;;;4.43;2.55;;;7.20;99.90;;;;;;5088517;28;20144;-70
2021/01/28 11:45:58;;;;;;;4.43;2.90;;;7.30;99.90;;;;;;5089722;28;20585;-67
2021/01/28 11:48:26;;;;;;;6.38;3.60;;;7.30;99.90;;;;;;5089342;28;20134;-69
2021/01/28 11:50:53;;;;;;;4.15;2.35;;;7.30;99.90;;;;;;5090500;28;20052;-68
2021/01/28 11:53:19;;;;;;;3.75;2.60;;;7.40;99.90;;;;;;5088388;28;20140;-68
2021/01/28 11:55:46;;;;;;;3.75;2.55;;;7.50;99.90;;;;;;5090001;28;20220;-69
2021/01/28 11:58:13;;;;;;;3.97;2.45;;;7.50;99.90;;;;;;5089862;28;20132;-68
2021/01/28 12:00:40;;;;;;;4.30;2.60;;;7.50;99.90;;;;;;5088085;28;20134;-69
2021/01/28 12:03:06;;;;;;;4.00;2.83;;;7.60;99.90;;;;;;5085998;28;20498;-69
2021/01/28 12:05:33;;;;;;;5.35;3.03;;;7.60;99.90;;;;;;5090708;28;20093;-68
2021/01/28 12:07:59;;;;;;;3.50;2.38;;;7.60;99.90;;;;;;5092982;28;20052;-68
2021/01/28 12:10:28;;;;;;;4.03;2.65;;;7.60;99.90;;;;;;5094945;27;20538;-68
2021/01/28 12:12:55;;;;;;;4.72;2.28;;;7.70;99.90;;;;;;5095715;28;20075;-68
2021/01/28 12:15:22;;;;;;;5.10;2.80;;;7.80;99.90;;;;;;5092713;28;20066;-69
2021/01/28 12:17:50;;;;;;;5.20;3.25;;;7.90;99.90;;;;;;5095823;28;20108;-68
2021/01/28 12:20:22;;;;;;;4.00;2.92;;;7.90;99.90;;;;;;5094548;28;20067;-69
2021/01/28 12:22:49;;;;;;;5.43;2.95;;;7.90;99.90;;;;;;5094578;28;20483;-73
2021/01/28 12:25:15;;;;;;;4.25;3.15;;;7.90;99.90;;;;;;5094291;28;20079;-70
2021/01/28 12:27:42;;;;;;;4.95;2.63;;;8.00;99.90;;;;;;5092421;28;20125;-71
2021/01/28 12:30:11;;;;;;;4.95;3.30;;;8.00;99.90;;;;;;5091453;28;20083;-71
2021/01/28 12:32:38;;;;;;;3.90;2.75;;;8.10;99.90;;;;;;5094616;27;20483;-71
2021/01/28 12:35:05;;;;;;;4.85;3.25;;;8.20;99.90;;;;;;5096712;28;20047;-71
2021/01/28 12:37:32;;;;;;;6.05;4.13;;;8.30;99.90;;;;;;5093321;28;20572;-71
2021/01/28 12:39:59;;;;;;;4.95;3.20;;;8.30;99.90;;;;;;5094509;27;20086;-71
2021/01/28 12:42:26;;;;;;;5.80;3.33;;;8.30;99.90;;;;;;5089554;28;20170;-71
2021/01/28 12:44:53;;;;;;;4.95;3.10;;;8.40;99.90;;;;;;5089333;28;20574;-71
2021/01/28 12:47:19;;;;;;;5.43;3.03;;;8.40;99.90;;;;;;5092756;28;20500;-72
2021/01/28 12:49:46;;;;;;;4.85;3.47;;;8.40;99.90;;;;;;5093901;27;20057;-71
2021/01/28 12:52:13;;;;;;;5.75;3.72;;;8.50;99.90;;;;;;5094680;27;20422;-72
2021/01/28 12:54:40;;;;;;;5.55;3.60;;;8.50;99.90;;;;;;5093231;27;20052;-77
2021/01/28 12:57:07;;;;;;;5.15;3.50;;;8.60;99.90;;;;;;5095339;28;20058;-70
2021/01/28 12:59:34;;;;;;;5.78;3.67;;;8.70;99.90;;;;;;5091703;28;20106;-70
2021/01/28 13:02:00;;;;;;;4.65;3.08;;;8.80;99.90;;;;;;5094313;28;20773;-68
2021/01/28 13:04:27;;;;;;;8.77;3.97;;;8.80;99.90;;;;;;5094557;27;20044;-68
2021/01/28 13:06:53;;;;;;;10.13;3.50;;;8.80;99.90;;;;;;5094310;27;21109;-69
2021/01/28 13:09:20;;;;;;;3.55;2.50;;;8.90;99.90;;;;;;5095161;28;20515;-69
2021/01/28 13:11:46;;;;;;;4.38;3.17;;;9.00;99.90;;;;;;5093161;28;20052;-67